x

Settlement Point, Gbi (spgf1) Weather Station

3:00am - Sun 5th Jul 2015 All times are EDT. -4 hours from GMT.

  • Wind
    8mph, 9mph gusts
  • Air Temp 81°f
  • Sea Pressure 1020.8mb
  • Settlement Point, Gbi
  • Settlement Point, Gbi

More Historic Weather Station data

Upgrade to MSW Pro to gain access to the past 30 days of data for over 8000 Wavebouys and Weather Stations around the globe.

Join Pro

Comparision Forecast

View Surf forecast
   
Sun 07/05 3:00am 8 9 mph 1020.8mb 81f
2:00am 7 9 mph 1021.2mb 81f
1:00am 6 8 mph 1021.7mb 82f
12:00am 7 8 mph 1021.5mb 82f
Sat 07/04 11:00pm 5
mph
1021.5mb 82f
10:00pm 6 7 mph 1020.8mb 82f
9:00pm 7 8 mph 1020.4mb 83f
8:00pm 5 6 mph 1020.7mb 84f
7:00pm 3 5 mph 1019.6mb 85f
6:00pm  -  2 mph 1019.9mb 83f
5:00pm 8 10 mph 1020.1mb 84f
4:00pm 9 11 mph 1020.2mb 85f
3:00pm 9 13 mph 1020.5mb 85f
2:00pm 15 17 mph 1021.3mb 81f
1:00pm 16 17 mph 1021.9mb 78f
12:00pm 8 10 mph 1021.8mb 84f
11:00am 9 13 mph 1021.6mb 84f
10:00am 8 10 mph 1021.3mb 84f
9:00am 13 15 mph 1020.9mb 83f
8:00am 9 10 mph 1020.6mb 83f
7:00am 8 10 mph 1020mb 82f
6:00am 8 9 mph 1019.5mb 81f
5:00am 8 9 mph 1019.3mb 82f
4:00am 6 7 mph 1019.2mb 82f
3:00am 8 9 mph 1019.5mb 81f
2:00am 6 7 mph 1020mb 81f
1:00am 6 7 mph 1020.4mb 82f
12:00am 7 8 mph 1020.8mb 82f
Fri 07/03 11:00pm 7 8 mph 1020.9mb 82f
10:00pm 7 9 mph 1020.4mb 82f
9:00pm 7 9 mph 1019.8mb 83f
8:00pm 5 6 mph 1019.8mb 83f
7:00pm 5
mph
1019.3mb 84f
6:00pm 9
mph
1019.4mb 83f
5:00pm 9
mph
1019.7mb 83f
4:00pm 8 9 mph 1019.4mb 84f
3:00pm 22 25 mph 1020.1mb 79f
2:00pm 7
mph
1020.2mb 85f
1:00pm 9 13 mph 1020.6mb 85f
12:00pm 10 14 mph 1020.7mb 85f
11:00am 9 13 mph 1020.4mb 85f
10:00am 7 10 mph 1020.2mb 84f
9:00am 8 9 mph 1020.4mb 83f
8:00am 7 9 mph 1020.1mb 83f
7:00am 6 7 mph 1019.6mb 81f
6:00am 7 9 mph 1018.9mb 81f
5:00am 7 9 mph 1018.8mb 80f
4:00am 6 7 mph 1018.6mb 81f
3:00am 8 9 mph 1018.8mb 81f
2:00am 8 9 mph 1019.4mb 81f
1:00am 8 10 mph 1020.4mb 82f
12:00am 5 6 mph 1021.6mb 82f
Thu 07/02 11:00pm 7 10 mph 1021.1mb 82f
10:00pm 8 9 mph 1020.9mb 83f
9:00pm 6
mph
1020.4mb 83f
8:00pm 5 7 mph 1019.7mb 84f
7:00pm 3 5 mph 1019.3mb 86f
6:00pm 3 5 mph 1019mb 85f
5:00pm 7 9 mph 1019.6mb 85f
4:00pm 6 7 mph 1019.9mb 85f
3:00pm 2 3 mph 1020.5mb 86f
2:00pm 3 5 mph 1020.9mb 84f
1:00pm 5 6 mph 1021.3mb 85f
12:00pm 7
mph
1021.6mb 84f
11:00am 9 11 mph 1021.3mb 85f
10:00am 8 9 mph 1021.4mb 84f
9:00am 5 8 mph 1020.9mb 84f
8:00am 6 8 mph 1020.6mb 83f
7:00am 7 9 mph 1019.8mb 81f
6:00am 7 8 mph 1019.5mb 81f
5:00am 8 10 mph 1019.3mb 81f
4:00am 9 13 mph 1019.2mb 81f
3:00am 6 8 mph 1019.9mb 81f
2:00am 8 9 mph 1020.2mb 81f
1:00am 7 8 mph 1021.2mb 82f
12:00am 7 8 mph 1021.9mb 82f
Wed 07/01 11:00pm 5 6 mph 1021.8mb 84f
10:00pm 5 6 mph 1021.4mb 84f
9:00pm 3
mph
1020.9mb 84f
8:00pm 7 9 mph 1020.5mb 83f
7:00pm 7 8 mph 1020.1mb 86f
6:00pm 2 3 mph 1020.2mb 87f
5:00pm 5
mph
1020.8mb 86f
4:00pm 8 9 mph 1020.4mb 85f
3:00pm 7 9 mph 1021.1mb 85f
2:00pm 7 9 mph 1021.6mb 85f
1:00pm 8 10 mph 1022.1mb 85f
12:00pm 9 11 mph 1022.2mb 85f
11:00am 9 10 mph 1022.2mb 85f
10:00am 6 8 mph 1021.9mb 84f
9:00am 8 10 mph 1022mb 81f